^^
Marion, Virginia Banner
 

Adwolf, VA. Station Historical Data
[ Providing Data Since 6/07/2007 ]
Station Historical Data
Daily Summary for October 12, 2017 Units:  Both    English   Metric
« Previous Day
Next Day »
Daily Weekly Monthly Yearly Custom
  High: Low: Average:
Temperature: 78.0 °F /  25.6 °C 61.3 °F /  16.3 °C 68.3 °F /  20.2 °C
Dew Point: 65.1 °F /  18.4 °C 59.0 °F /  15 °C 61.8 °F /  16.6 °C
Humidity: 92% 62% 81%
Wind Speed: 14.0mph /  22.5km/h - 4.6mph /  7.4km/h
Wind Gust: 14.0mph /  22.5km/h - -
Wind- - East
Pressure: 30.14 in /  1020.5 hPa 30.02 in /  1016.5 hPa -
Precipitation: 0.00 in /  0 mm    
Historical Graphs
 
 
Tabular Data for October 12, 2017
Time Temperature Dew Point Pressure Wind Wind Speed Wind Gust Humidity Rainfall Rate (Hourly) solar Conditions
00:03 63.8 °F /  17.7 °C 61.4 °F /  16.3 °C 30.02in /  1016.5hPa Calm     92% 0.00in /  0mm WeatherDisplay:10.37 W/m2 RA
00:08 63.9 °F /  17.7 °C 61.2 °F /  16.2 °C 30.02in /  1016.5hPa Calm     91% 0.00in /  0mm WeatherDisplay:10.37 W/m2 RA
00:18 63.8 °F /  17.7 °C 61.1 °F /  16.2 °C 30.03in /  1016.8hPa NE 2.3mph /  3.7km/h 2.3mph /  3.7km/h 91% 0.00in /  0mm WeatherDisplay:10.37 W/m2 OVC
00:23 63.7 °F /  17.6 °C 61.3 °F /  16.3 °C 30.03in /  1016.8hPa Calm     92% 0.00in /  0mm WeatherDisplay:10.37 W/m2 OVC
00:28 63.6 °F /  17.6 °C 61.2 °F /  16.2 °C 30.02in /  1016.5hPa NE 1.2mph /  1.9km/h 1.2mph /  1.9km/h 92% 0.00in /  0mm WeatherDisplay:10.37 W/m2 OVC
00:33 63.6 °F /  17.6 °C 61.2 °F /  16.2 °C 30.02in /  1016.5hPa NE 1.2mph /  1.9km/h   92% 0.00in /  0mm WeatherDisplay:10.37 W/m2 OVC
00:38 63.5 °F /  17.5 °C 60.8 °F /  16 °C 30.02in /  1016.5hPa NE 1.2mph /  1.9km/h 1.2mph /  1.9km/h 91% 0.00in /  0mm WeatherDisplay:10.37 W/m2 OVC
00:43 63.5 °F /  17.5 °C 61.1 °F /  16.2 °C 30.02in /  1016.5hPa NE 2.0mph /  3.2km/h 2.0mph /  3.2km/h 92% 0.00in /  0mm WeatherDisplay:10.37 W/m2 OVC
00:48 63.5 °F /  17.5 °C 60.8 °F /  16 °C 30.02in /  1016.5hPa NE 2.0mph /  3.2km/h 2.0mph /  3.2km/h 91% 0.00in /  0mm WeatherDisplay:10.37 W/m2 OVC
00:53 63.6 °F /  17.6 °C 61.2 °F /  16.2 °C 30.03in /  1016.8hPa South 2.3mph /  3.7km/h 2.3mph /  3.7km/h 92% 0.00in /  0mm WeatherDisplay:10.37 W/m2 OVC
00:58 63.9 °F /  17.7 °C 61.5 °F /  16.4 °C 30.02in /  1016.5hPa South 3.0mph /  4.8km/h 3.0mph /  4.8km/h 92% 0.00in /  0mm WeatherDisplay:10.37 W/m2 OVC
01:03 64.0 °F /  17.8 °C 61.6 °F /  16.4 °C 30.02in /  1016.5hPa South 2.3mph /  3.7km/h 2.3mph /  3.7km/h 92% 0.00in /  0mm WeatherDisplay:10.37 W/m2 OVC
01:08 64.0 °F /  17.8 °C 61.6 °F /  16.4 °C 30.02in /  1016.5hPa Calm     92% 0.00in /  0mm WeatherDisplay:10.37 W/m2 OVC
01:13 63.9 °F /  17.7 °C 61.5 °F /  16.4 °C 30.02in /  1016.5hPa Calm     92% 0.00in /  0mm WeatherDisplay:10.37 W/m2 OVC
01:18 63.8 °F /  17.7 °C 61.4 °F /  16.3 °C 30.02in /  1016.5hPa South 1.2mph /  1.9km/h 1.2mph /  1.9km/h 92% 0.00in /  0mm WeatherDisplay:10.37 W/m2 OVC
01:23 63.7 °F /  17.6 °C 61.3 °F /  16.3 °C 30.03in /  1016.8hPa South 2.3mph /  3.7km/h 2.3mph /  3.7km/h 92% 0.00in /  0mm WeatherDisplay:10.37 W/m2 OVC
01:28 63.7 °F /  17.6 °C 61.3 °F /  16.3 °C 30.02in /  1016.5hPa NNE 3.0mph /  4.8km/h 3.0mph /  4.8km/h 92% 0.00in /  0mm WeatherDisplay:10.37 W/m2 OVC
01:33 63.6 °F /  17.6 °C 61.2 °F /  16.2 °C 30.02in /  1016.5hPa NNE 2.3mph /  3.7km/h 2.3mph /  3.7km/h 92% 0.00in /  0mm WeatherDisplay:10.37 W/m2 OVC
01:38 63.5 °F /  17.5 °C 61.1 °F /  16.2 °C 30.02in /  1016.5hPa Calm     92% 0.00in /  0mm WeatherDisplay:10.37 W/m2 OVC
01:43 63.4 °F /  17.4 °C 61.0 °F /  16.1 °C 30.02in /  1016.5hPa Calm     92% 0.00in /  0mm WeatherDisplay:10.37 W/m2 OVC
01:48 63.3 °F /  17.4 °C 60.9 °F /  16.1 °C 30.02in /  1016.5hPa Calm     92% 0.00in /  0mm WeatherDisplay:10.37 W/m2 OVC
01:53 63.2 °F /  17.3 °C 60.8 °F /  16 °C 30.02in /  1016.5hPa Calm     92% 0.00in /  0mm WeatherDisplay:10.37 W/m2 OVC
01:58 63.0 °F /  17.2 °C 60.6 °F /  15.9 °C 30.02in /  1016.5hPa Calm     92% 0.00in /  0mm WeatherDisplay:10.37 W/m2 OVC
02:03 63.1 °F /  17.3 °C 60.7 °F /  15.9 °C 30.02in /  1016.5hPa Calm     92% 0.00in /  0mm WeatherDisplay:10.37 W/m2 OVC
02:08 63.1 °F /  17.3 °C 60.7 °F /  15.9 °C 30.02in /  1016.5hPa Calm     92% 0.00in /  0mm WeatherDisplay:10.37 W/m2 OVC
02:13 63.1 °F /  17.3 °C 60.7 °F /  15.9 °C 30.02in /  1016.5hPa Calm     92% 0.00in /  0mm WeatherDisplay:10.37 W/m2 OVC
02:18 63.1 °F /  17.3 °C 60.7 °F /  15.9 °C 30.02in /  1016.5hPa Calm     92% 0.00in /  0mm WeatherDisplay:10.37 W/m2 OVC
02:23 63.2 °F /  17.3 °C 60.8 °F /  16 °C 30.02in /  1016.5hPa Calm     92% 0.00in /  0mm WeatherDisplay:10.37 W/m2 OVC
02:28 63.1 °F /  17.3 °C 60.7 °F /  15.9 °C 30.03in /  1016.8hPa Calm     92% 0.00in /  0mm WeatherDisplay:10.37 W/m2 OVC
02:33 63.0 °F /  17.2 °C 60.6 °F /  15.9 °C 30.02in /  1016.5hPa Calm     92% 0.00in /  0mm WeatherDisplay:10.37 W/m2 OVC
02:38 62.7 °F /  17.1 °C 60.3 °F /  15.7 °C 30.02in /  1016.5hPa Calm     92% 0.00in /  0mm WeatherDisplay:10.37 W/m2 OVC
02:43 62.6 °F /  17 °C 60.2 °F /  15.7 °C 30.03in /  1016.8hPa Calm     92% 0.00in /  0mm WeatherDisplay:10.37 W/m2 OVC
02:48 62.5 °F /  16.9 °C 60.1 °F /  15.6 °C 30.03in /  1016.8hPa Calm     92% 0.00in /  0mm WeatherDisplay:10.37 W/m2 OVC
02:53 62.5 °F /  16.9 °C 60.1 °F /  15.6 °C 30.02in /  1016.5hPa Calm     92% 0.00in /  0mm WeatherDisplay:10.37 W/m2 OVC
02:58 62.4 °F /  16.9 °C 60.0 °F /  15.6 °C 30.02in /  1016.5hPa Calm     92% 0.00in /  0mm WeatherDisplay:10.37 W/m2 OVC
03:03 62.4 °F /  16.9 °C 60.0 °F /  15.6 °C 30.03in /  1016.8hPa Calm     92% 0.00in /  0mm WeatherDisplay:10.37 W/m2 OVC
03:08 62.4 °F /  16.9 °C 60.0 °F /  15.6 °C 30.03in /  1016.8hPa Calm     92% 0.00in /  0mm WeatherDisplay:10.37 W/m2 OVC
03:13 62.4 °F /  16.9 °C 60.0 °F /  15.6 °C 30.02in /  1016.5hPa Calm     92% 0.00in /  0mm WeatherDisplay:10.37 W/m2 OVC
03:18 62.3 °F /  16.8 °C 59.9 °F /  15.5 °C 30.02in /  1016.5hPa Calm     92% 0.00in /  0mm WeatherDisplay:10.37 W/m2 OVC
03:23 62.3 °F /  16.8 °C 59.9 °F /  15.5 °C 30.03in /  1016.8hPa Calm     92% 0.00in /  0mm WeatherDisplay:10.37 W/m2 BKN
03:28 62.2 °F /  16.8 °C 59.8 °F /  15.4 °C 30.03in /  1016.8hPa Calm     92% 0.00in /  0mm WeatherDisplay:10.37 W/m2 BKN
03:33 62.2 °F /  16.8 °C 59.8 °F /  15.4 °C 30.03in /  1016.8hPa Calm     92% 0.00in /  0mm WeatherDisplay:10.37 W/m2 BKN
03:38 62.1 °F /  16.7 °C 59.7 °F /  15.4 °C 30.02in /  1016.5hPa Calm     92% 0.00in /  0mm WeatherDisplay:10.37 W/m2 BKN
03:43 62.1 °F /  16.7 °C 59.7 °F /  15.4 °C 30.02in /  1016.5hPa Calm     92% 0.00in /  0mm WeatherDisplay:10.37 W/m2 OVC
03:48 62.2 °F /  16.8 °C 59.8 °F /  15.4 °C 30.03in /  1016.8hPa Calm     92% 0.00in /  0mm WeatherDisplay:10.37 W/m2 OVC
03:53 62.3 °F /  16.8 °C 59.9 °F /  15.5 °C 30.03in /  1016.8hPa Calm     92% 0.00in /  0mm WeatherDisplay:10.37 W/m2 OVC
03:58 62.4 °F /  16.9 °C 60.0 °F /  15.6 °C 30.03in /  1016.8hPa Calm     92% 0.00in /  0mm WeatherDisplay:10.37 W/m2 OVC
04:03 62.4 °F /  16.9 °C 60.0 °F /  15.6 °C 30.03in /  1016.8hPa Calm     92% 0.00in /  0mm WeatherDisplay:10.37 W/m2 OVC
04:08 62.5 °F /  16.9 °C 60.1 °F /  15.6 °C 30.02in /  1016.5hPa Calm     92% 0.00in /  0mm WeatherDisplay:10.37 W/m2 OVC
04:13 62.5 °F /  16.9 °C 60.1 °F /  15.6 °C 30.02in /  1016.5hPa Calm     92% 0.00in /  0mm WeatherDisplay:10.37 W/m2 OVC
04:18 62.3 °F /  16.8 °C 59.9 °F /  15.5 °C 30.02in /  1016.5hPa Calm     92% 0.00in /  0mm WeatherDisplay:10.37 W/m2 OVC
04:23 62.2 °F /  16.8 °C 59.8 °F /  15.4 °C 30.02in /  1016.5hPa Calm     92% 0.00in /  0mm WeatherDisplay:10.37 W/m2 OVC
04:28 62.1 °F /  16.7 °C 59.7 °F /  15.4 °C 30.02in /  1016.5hPa Calm     92% 0.00in /  0mm WeatherDisplay:10.37 W/m2 OVC
04:33 62.0 °F /  16.7 °C 59.6 °F /  15.3 °C 30.03in /  1016.8hPa Calm     92% 0.00in /  0mm WeatherDisplay:10.37 W/m2 OVC
04:38 62.0 °F /  16.7 °C 59.6 °F /  15.3 °C 30.03in /  1016.8hPa Calm     92% 0.00in /  0mm WeatherDisplay:10.37 W/m2 OVC
04:43 62.1 °F /  16.7 °C 59.7 °F /  15.4 °C 30.03in /  1016.8hPa Calm     92% 0.00in /  0mm WeatherDisplay:10.37 W/m2 OVC
04:48 62.2 °F /  16.8 °C 59.8 °F /  15.4 °C 30.03in /  1016.8hPa Calm     92% 0.00in /  0mm WeatherDisplay:10.37 W/m2 OVC
04:53 62.3 °F /  16.8 °C 59.9 °F /  15.5 °C 30.03in /  1016.8hPa Calm     92% 0.00in /  0mm WeatherDisplay:10.37 W/m2 OVC
04:54 62.3 °F /  16.8 °C 59.9 °F /  15.5 °C 30.03in /  1016.8hPa Calm     92% 0.00in /  0mm WeatherDisplay:10.37 W/m2 OVC
04:59 62.4 °F /  16.9 °C 60.0 °F /  15.6 °C 30.03in /  1016.8hPa Calm     92% 0.00in /  0mm WeatherDisplay:10.37 W/m2 OVC
05:04 62.4 °F /  16.9 °C 60.0 °F /  15.6 °C 30.03in /  1016.8hPa Calm     92% 0.00in /  0mm WeatherDisplay:10.37 W/m2 OVC
05:09 62.5 °F /  16.9 °C 60.1 °F /  15.6 °C 30.03in /  1016.8hPa Calm     92% 0.00in /  0mm WeatherDisplay:10.37 W/m2 OVC
05:14 62.4 °F /  16.9 °C 60.0 °F /  15.6 °C 30.03in /  1016.8hPa Calm     92% 0.00in /  0mm WeatherDisplay:10.37 W/m2 OVC
05:19 62.4 °F /  16.9 °C 60.0 °F /  15.6 °C 30.04in /  1017.2hPa Calm     92% 0.00in /  0mm WeatherDisplay:10.37 W/m2 OVC
05:24 62.3 °F /  16.8 °C 59.9 °F /  15.5 °C 30.04in /  1017.2hPa Calm     92% 0.00in /  0mm WeatherDisplay:10.37 W/m2 BKN
05:29 62.4 °F /  16.9 °C 60.0 °F /  15.6 °C 30.04in /  1017.2hPa Calm     92% 0.00in /  0mm WeatherDisplay:10.37 W/m2 BKN
05:34 62.5 °F /  16.9 °C 60.1 °F /  15.6 °C 30.03in /  1016.8hPa Calm     92% 0.00in /  0mm WeatherDisplay:10.37 W/m2 BKN
05:39 62.5 °F /  16.9 °C 60.1 °F /  15.6 °C 30.03in /  1016.8hPa Calm     92% 0.00in /  0mm WeatherDisplay:10.37 W/m2 BKN
05:44 62.4 °F /  16.9 °C 60.0 °F /  15.6 °C 30.04in /  1017.2hPa Calm     92% 0.00in /  0mm WeatherDisplay:10.37 W/m2 SCT
05:49 62.4 °F /  16.9 °C 60.0 °F /  15.6 °C 30.04in /  1017.2hPa Calm     92% 0.00in /  0mm WeatherDisplay:10.37 W/m2 SCT
05:54 62.4 °F /  16.9 °C 60.0 °F /  15.6 °C 30.04in /  1017.2hPa Calm     92% 0.00in /  0mm WeatherDisplay:10.37 W/m2 SCT
05:59 62.4 °F /  16.9 °C 60.0 °F /  15.6 °C 30.04in /  1017.2hPa Calm     92% 0.00in /  0mm WeatherDisplay:10.37 W/m2 SCT
06:04 62.5 °F /  16.9 °C 60.1 °F /  15.6 °C 30.04in /  1017.2hPa Calm     92% 0.00in /  0mm WeatherDisplay:10.37 W/m2 SCT
06:09 62.5 °F /  16.9 °C 60.1 °F /  15.6 °C 30.05in /  1017.5hPa Calm     92% 0.00in /  0mm WeatherDisplay:10.37 W/m2 SCT
06:14 62.4 °F /  16.9 °C 60.0 °F /  15.6 °C 30.05in /  1017.5hPa Calm     92% 0.00in /  0mm WeatherDisplay:10.37 W/m2 SCT
06:19 62.2 °F /  16.8 °C 59.8 °F /  15.4 °C 30.05in /  1017.5hPa Calm     92% 0.00in /  0mm WeatherDisplay:10.37 W/m2 SCT
06:24 61.9 °F /  16.6 °C 59.5 °F /  15.3 °C 30.05in /  1017.5hPa Calm     92% 0.00in /  0mm WeatherDisplay:10.37 W/m2 SCT
06:29 61.7 °F /  16.5 °C 59.4 °F /  15.2 °C 30.05in /  1017.5hPa Calm     92% 0.00in /  0mm WeatherDisplay:10.37 W/m2 SCT
06:34 61.6 °F /  16.4 °C 59.3 °F /  15.2 °C 30.05in /  1017.5hPa Calm     92% 0.00in /  0mm WeatherDisplay:10.37 W/m2 SCT
06:39 61.6 °F /  16.4 °C 59.3 °F /  15.2 °C 30.05in /  1017.5hPa Calm     92% 0.00in /  0mm WeatherDisplay:10.37 W/m2 SCT
06:44 61.5 °F /  16.4 °C 59.2 °F /  15.1 °C 30.05in /  1017.5hPa Calm     92% 0.00in /  0mm WeatherDisplay:10.37 W/m2 CLR
06:49 61.5 °F /  16.4 °C 59.2 °F /  15.1 °C 30.05in /  1017.5hPa Calm     92% 0.00in /  0mm WeatherDisplay:10.37 W/m2 CLR
06:54 61.4 °F /  16.3 °C 59.1 °F /  15.1 °C 30.05in /  1017.5hPa Calm     92% 0.00in /  0mm WeatherDisplay:10.37 W/m2 CLR
07:04 61.4 °F /  16.3 °C 59.1 °F /  15.1 °C 30.05in /  1017.5hPa Calm     92% 0.00in /  0mm WeatherDisplay:10.37 W/m2 CLR
07:09 61.5 °F /  16.4 °C 59.2 °F /  15.1 °C 30.06in /  1017.8hPa Calm     92% 0.00in /  0mm WeatherDisplay:10.37 W/m2 CLR
07:14 61.4 °F /  16.3 °C 59.1 °F /  15.1 °C 30.06in /  1017.8hPa Calm     92% 0.00in /  0mm WeatherDisplay:10.37 W/m2 CLR
07:19 61.4 °F /  16.3 °C 59.1 °F /  15.1 °C 30.06in /  1017.8hPa Calm     92% 0.00in /  0mm WeatherDisplay:10.37 W/m2 CLR
07:24 61.3 °F /  16.3 °C 59.0 °F /  15 °C 30.06in /  1017.8hPa Calm     92% 0.00in /  0mm WeatherDisplay:10.37 W/m2 CLR
07:29 61.4 °F /  16.3 °C 59.1 °F /  15.1 °C 30.06in /  1017.8hPa Calm     92% 0.00in /  0mm WeatherDisplay:10.37 W/m2 CLR
07:34 61.4 °F /  16.3 °C 59.1 °F /  15.1 °C 30.06in /  1017.8hPa Calm     92% 0.00in /  0mm WeatherDisplay:10.37 W/m2 CLR
07:39 61.5 °F /  16.4 °C 59.2 °F /  15.1 °C 30.06in /  1017.8hPa Calm     92% 0.00in /  0mm WeatherDisplay:10.37 W/m2 CLR
07:44 61.5 °F /  16.4 °C 59.2 °F /  15.1 °C 30.06in /  1017.8hPa Calm     92% 0.00in /  0mm WeatherDisplay:10.37 W/m2 CLR
07:49 61.5 °F /  16.4 °C 59.2 °F /  15.1 °C 30.06in /  1017.8hPa Calm     92% 0.00in /  0mm WeatherDisplay:10.37 W/m2 CLR
07:54 61.5 °F /  16.4 °C 59.2 °F /  15.1 °C 30.06in /  1017.8hPa Calm     92% 0.00in /  0mm WeatherDisplay:10.37 W/m2 CLR
07:59 61.6 °F /  16.4 °C 59.3 °F /  15.2 °C 30.06in /  1017.8hPa Calm     92% 0.00in /  0mm WeatherDisplay:10.37 W/m2 CLR
08:04 61.8 °F /  16.6 °C 59.5 °F /  15.3 °C 30.07in /  1018.2hPa Calm     92% 0.00in /  0mm WeatherDisplay:10.37 W/m2 SCT
08:09 62.0 °F /  16.7 °C 59.6 °F /  15.3 °C 30.07in /  1018.2hPa Calm     92% 0.00in /  0mm WeatherDisplay:10.37 W/m2 SCT
08:19 62.3 °F /  16.8 °C 59.9 °F /  15.5 °C 30.07in /  1018.2hPa Calm     92% 0.00in /  0mm WeatherDisplay:10.37 W/m2 SCT
08:24 62.5 °F /  16.9 °C 60.1 °F /  15.6 °C 30.07in /  1018.2hPa Calm     92% 0.00in /  0mm WeatherDisplay:10.37 W/m2 OVC
08:29 62.9 °F /  17.2 °C 60.5 °F /  15.8 °C 30.07in /  1018.2hPa Calm     92% 0.00in /  0mm WeatherDisplay:10.37 W/m2 OVC
08:34 63.1 °F /  17.3 °C 60.7 °F /  15.9 °C 30.08in /  1018.5hPa Calm     92% 0.00in /  0mm WeatherDisplay:10.37 W/m2 OVC
08:44 63.5 °F /  17.5 °C 61.1 °F /  16.2 °C 30.08in /  1018.5hPa Calm     92% 0.00in /  0mm WeatherDisplay:10.37 W/m2 OVC
08:49 63.6 °F /  17.6 °C 61.2 °F /  16.2 °C 30.08in /  1018.5hPa Calm     92% 0.00in /  0mm WeatherDisplay:10.37 W/m2 OVC
08:54 63.7 °F /  17.6 °C 61.3 °F /  16.3 °C 30.08in /  1018.5hPa Calm     92% 0.00in /  0mm WeatherDisplay:10.37 W/m2 OVC
08:59 64.0 °F /  17.8 °C 61.6 °F /  16.4 °C 30.08in /  1018.5hPa Calm     92% 0.00in /  0mm WeatherDisplay:10.37 W/m2 OVC
09:04 64.1 °F /  17.8 °C 61.7 °F /  16.5 °C 30.08in /  1018.5hPa Calm     92% 0.00in /  0mm WeatherDisplay:10.37 W/m2 OVC
09:09 64.6 °F /  18.1 °C 62.2 °F /  16.8 °C 30.08in /  1018.5hPa NW 2.3mph /  3.7km/h 2.3mph /  3.7km/h 92% 0.00in /  0mm WeatherDisplay:10.37 W/m2 OVC
09:14 64.8 °F /  18.2 °C 62.4 °F /  16.9 °C 30.08in /  1018.5hPa NNE 3.5mph /  5.6km/h 3.5mph /  5.6km/h 92% 0.00in /  0mm WeatherDisplay:10.37 W/m2 OVC
09:19 65.2 °F /  18.4 °C 62.8 °F /  17.1 °C 30.08in /  1018.5hPa NNE 3.5mph /  5.6km/h 3.5mph /  5.6km/h 92% 0.00in /  0mm WeatherDisplay:10.37 W/m2 OVC
09:24 65.5 °F /  18.6 °C 63.1 °F /  17.3 °C 30.08in /  1018.5hPa North 3.0mph /  4.8km/h 3.0mph /  4.8km/h 92% 0.00in /  0mm WeatherDisplay:10.37 W/m2 OVC
09:29 65.8 °F /  18.8 °C 63.1 °F /  17.3 °C 30.08in /  1018.5hPa NNE 3.5mph /  5.6km/h 3.5mph /  5.6km/h 91% 0.00in /  0mm WeatherDisplay:10.37 W/m2 OVC
09:34 66.0 °F /  18.9 °C 63.0 °F /  17.2 °C 30.08in /  1018.5hPa NNE 3.0mph /  4.8km/h 3.0mph /  4.8km/h 90% 0.00in /  0mm WeatherDisplay:10.37 W/m2 OVC
09:39 65.9 °F /  18.8 °C 62.9 °F /  17.2 °C 30.08in /  1018.5hPa NNE 3.5mph /  5.6km/h 3.5mph /  5.6km/h 90% 0.00in /  0mm WeatherDisplay:10.37 W/m2 OVC
09:44 65.9 °F /  18.8 °C 62.9 °F /  17.2 °C 30.08in /  1018.5hPa NNE 3.5mph /  5.6km/h 3.5mph /  5.6km/h 90% 0.00in /  0mm WeatherDisplay:10.37 W/m2 SCT
09:49 65.9 °F /  18.8 °C 62.9 °F /  17.2 °C 30.08in /  1018.5hPa Calm     90% 0.00in /  0mm WeatherDisplay:10.37 W/m2 SCT
09:54 66.0 °F /  18.9 °C 63.0 °F /  17.2 °C 30.08in /  1018.5hPa Calm     90% 0.00in /  0mm WeatherDisplay:10.37 W/m2 SCT
09:59 66.4 °F /  19.1 °C 63.7 °F /  17.6 °C 30.08in /  1018.5hPa NNE 8.0mph /  12.9km/h   91% 0.00in /  0mm WeatherDisplay:10.37 W/m2 SCT
10:04 66.8 °F /  19.3 °C 63.8 °F /  17.7 °C 30.08in /  1018.5hPa NNE 7.0mph /  11.3km/h 7.0mph /  11.3km/h 90% 0.00in /  0mm WeatherDisplay:10.37 W/m2 SCT
10:09 66.8 °F /  19.3 °C 63.5 °F /  17.5 °C 30.08in /  1018.5hPa NNE 6.0mph /  9.7km/h 6.0mph /  9.7km/h 89% 0.00in /  0mm WeatherDisplay:10.37 W/m2 SCT
10:14 66.8 °F /  19.3 °C 63.5 °F /  17.5 °C 30.08in /  1018.5hPa NNE 5.8mph /  9.3km/h 5.8mph /  9.3km/h 89% 0.00in /  0mm WeatherDisplay:10.37 W/m2 SCT
10:19 67.1 °F /  19.5 °C 63.7 °F /  17.6 °C 30.08in /  1018.5hPa NNE 4.0mph /  6.4km/h 4.0mph /  6.4km/h 89% 0.00in /  0mm WeatherDisplay:10.37 W/m2 SCT
10:24 67.7 °F /  19.8 °C 64.3 °F /  17.9 °C 30.08in /  1018.5hPa NE 3.5mph /  5.6km/h 3.5mph /  5.6km/h 89% 0.00in /  0mm WeatherDisplay:10.37 W/m2 SCT
10:29 68.4 °F /  20.2 °C 64.7 °F /  18.2 °C 30.08in /  1018.5hPa NE 4.6mph /  7.4km/h 4.6mph /  7.4km/h 88% 0.00in /  0mm WeatherDisplay:10.37 W/m2 SCT
10:34 69.2 °F /  20.7 °C 64.8 °F /  18.2 °C 30.08in /  1018.5hPa NE 4.0mph /  6.4km/h 4.0mph /  6.4km/h 86% 0.00in /  0mm WeatherDisplay:10.37 W/m2 SCT
10:39 69.7 °F /  20.9 °C 64.3 °F /  17.9 °C 30.08in /  1018.5hPa NE 3.5mph /  5.6km/h 3.5mph /  5.6km/h 83% 0.00in /  0mm WeatherDisplay:10.37 W/m2 SCT
10:44 69.8 °F /  21 °C 64.4 °F /  18 °C 30.08in /  1018.5hPa NE 3.5mph /  5.6km/h 3.5mph /  5.6km/h 83% 0.00in /  0mm WeatherDisplay:10.37 W/m2 SCT
10:49 70.0 °F /  21.1 °C 64.2 °F /  17.9 °C 30.08in /  1018.5hPa NE 3.0mph /  4.8km/h 3.0mph /  4.8km/h 82% 0.00in /  0mm WeatherDisplay:10.37 W/m2 SCT
10:54 70.3 °F /  21.3 °C 64.2 °F /  17.9 °C 30.08in /  1018.5hPa NNW 3.5mph /  5.6km/h 3.5mph /  5.6km/h 81% 0.00in /  0mm WeatherDisplay:10.37 W/m2 SCT
10:59 70.4 °F /  21.3 °C 63.6 °F /  17.6 °C 30.08in /  1018.5hPa NNW 3.5mph /  5.6km/h 3.5mph /  5.6km/h 79% 0.00in /  0mm WeatherDisplay:10.37 W/m2 SCT
11:04 70.4 °F /  21.3 °C 63.6 °F /  17.6 °C 30.08in /  1018.5hPa NNW 3.5mph /  5.6km/h 3.5mph /  5.6km/h 79% 0.00in /  0mm WeatherDisplay:10.37 W/m2 SCT
11:09 71.0 °F /  21.7 °C 63.4 °F /  17.4 °C 30.08in /  1018.5hPa ESE 2.3mph /  3.7km/h 2.3mph /  3.7km/h 77% 0.00in /  0mm WeatherDisplay:10.37 W/m2 SCT
11:19 72.4 °F /  22.4 °C 64.4 °F /  18 °C 30.08in /  1018.5hPa WSW 3.0mph /  4.8km/h 3.0mph /  4.8km/h 76% 0.00in /  0mm WeatherDisplay:10.37 W/m2 SCT
11:24 73.0 °F /  22.8 °C 63.4 °F /  17.4 °C 30.08in /  1018.5hPa WSW 3.5mph /  5.6km/h 3.5mph /  5.6km/h 72% 0.00in /  0mm WeatherDisplay:10.37 W/m2 BKN
11:29 72.8 °F /  22.7 °C 62.8 °F /  17.1 °C 30.08in /  1018.5hPa WSW 3.5mph /  5.6km/h 3.5mph /  5.6km/h 71% 0.00in /  0mm WeatherDisplay:10.37 W/m2 BKN
11:34 72.6 °F /  22.6 °C 63.4 °F /  17.4 °C 30.08in /  1018.5hPa NNE 3.5mph /  5.6km/h 3.5mph /  5.6km/h 73% 0.00in /  0mm WeatherDisplay:10.37 W/m2 BKN
11:39 72.8 °F /  22.7 °C 63.6 °F /  17.6 °C 30.08in /  1018.5hPa West 3.5mph /  5.6km/h 3.5mph /  5.6km/h 73% 0.00in /  0mm WeatherDisplay:10.37 W/m2 BKN
11:44 72.9 °F /  22.7 °C 62.9 °F /  17.2 °C 30.08in /  1018.5hPa SSW 5.0mph /  8km/h 5.0mph /  8km/h 71% 0.00in /  0mm WeatherDisplay:10.37 W/m2 OVC
11:49 72.7 °F /  22.6 °C 63.1 °F /  17.3 °C 30.08in /  1018.5hPa SW 3.5mph /  5.6km/h 3.5mph /  5.6km/h 72% 0.00in /  0mm WeatherDisplay:10.37 W/m2 OVC
11:54 72.7 °F /  22.6 °C 62.8 °F /  17.1 °C 30.08in /  1018.5hPa WSW 3.5mph /  5.6km/h 3.5mph /  5.6km/h 71% 0.00in /  0mm WeatherDisplay:10.37 W/m2 OVC
11:59 72.7 °F /  22.6 °C 62.8 °F /  17.1 °C 30.08in /  1018.5hPa WSW 3.5mph /  5.6km/h 3.5mph /  5.6km/h 71% 0.00in /  0mm WeatherDisplay:10.37 W/m2 OVC
12:04 72.6 °F /  22.6 °C 62.7 °F /  17.1 °C 30.08in /  1018.5hPa WSW 3.5mph /  5.6km/h 3.5mph /  5.6km/h 71% 0.00in /  0mm WeatherDisplay:10.37 W/m2 OVC
12:09 72.8 °F /  22.7 °C 62.8 °F /  17.1 °C 30.08in /  1018.5hPa SSW 3.5mph /  5.6km/h 3.5mph /  5.6km/h 71% 0.00in /  0mm WeatherDisplay:10.37 W/m2 OVC
12:14 73.4 °F /  23 °C 63.0 °F /  17.2 °C 30.08in /  1018.5hPa SSW 4.0mph /  6.4km/h 4.0mph /  6.4km/h 70% 0.00in /  0mm WeatherDisplay:10.37 W/m2 OVC
12:19 73.2 °F /  22.9 °C 62.4 °F /  16.9 °C 30.08in /  1018.5hPa SSW 5.8mph /  9.3km/h 5.8mph /  9.3km/h 69% 0.00in /  0mm WeatherDisplay:10.37 W/m2 OVC
12:24 73.1 °F /  22.8 °C 62.7 °F /  17.1 °C 30.08in /  1018.5hPa NNE 5.8mph /  9.3km/h 5.8mph /  9.3km/h 70% 0.00in /  0mm WeatherDisplay:10.37 W/m2 OVC
12:29 73.2 °F /  22.9 °C 63.2 °F /  17.3 °C 30.08in /  1018.5hPa NNE 5.8mph /  9.3km/h 5.8mph /  9.3km/h 71% 0.00in /  0mm WeatherDisplay:10.37 W/m2 OVC
12:34 73.8 °F /  23.2 °C 63.4 °F /  17.4 °C 30.07in /  1018.2hPa NNE 1.2mph /  1.9km/h 1.2mph /  1.9km/h 70% 0.00in /  0mm WeatherDisplay:10.37 W/m2 OVC
12:39 74.7 °F /  23.7 °C 63.9 °F /  17.7 °C 30.07in /  1018.2hPa NNE 1.2mph /  1.9km/h 1.2mph /  1.9km/h 69% 0.00in /  0mm WeatherDisplay:10.37 W/m2 OVC
12:44 75.5 °F /  24.2 °C 63.8 °F /  17.7 °C 30.07in /  1018.2hPa NE 2.3mph /  3.7km/h 2.3mph /  3.7km/h 67% 0.00in /  0mm WeatherDisplay:10.37 W/m2 OVC
12:49 75.6 °F /  24.2 °C 64.3 °F /  17.9 °C 30.07in /  1018.2hPa NNE 4.6mph /  7.4km/h 4.6mph /  7.4km/h 68% 0.00in /  0mm WeatherDisplay:10.37 W/m2 OVC
12:54 75.7 °F /  24.3 °C 63.1 °F /  17.3 °C 30.07in /  1018.2hPa NNE 4.6mph /  7.4km/h 4.6mph /  7.4km/h 65% 0.00in /  0mm WeatherDisplay:10.37 W/m2 OVC
12:59 75.8 °F /  24.3 °C 63.6 °F /  17.6 °C 30.07in /  1018.2hPa ENE 4.0mph /  6.4km/h 4.0mph /  6.4km/h 66% 0.00in /  0mm WeatherDisplay:10.37 W/m2 OVC
13:04 76.5 °F /  24.7 °C 63.9 °F /  17.7 °C 30.07in /  1018.2hPa NE 4.0mph /  6.4km/h 4.0mph /  6.4km/h 65% 0.00in /  0mm WeatherDisplay:10.37 W/m2 OVC
13:09 76.8 °F /  24.9 °C 63.7 °F /  17.6 °C 30.06in /  1017.8hPa NE 3.5mph /  5.6km/h 3.5mph /  5.6km/h 64% 0.00in /  0mm WeatherDisplay:10.37 W/m2 OVC
13:14 76.5 °F /  24.7 °C 63.4 °F /  17.4 °C 30.06in /  1017.8hPa North 5.0mph /  8km/h 5.0mph /  8km/h 64% 0.00in /  0mm WeatherDisplay:10.37 W/m2 OVC
13:19 75.8 °F /  24.3 °C 63.2 °F /  17.3 °C 30.06in /  1017.8hPa East 4.6mph /  7.4km/h 4.6mph /  7.4km/h 65% 0.00in /  0mm WeatherDisplay:10.37 W/m2 OVC
13:24 76.0 °F /  24.4 °C 63.4 °F /  17.4 °C 30.06in /  1017.8hPa East 4.6mph /  7.4km/h 4.6mph /  7.4km/h 65% 0.00in /  0mm WeatherDisplay:10.37 W/m2 OVC
13:29 76.0 °F /  24.4 °C 63.4 °F /  17.4 °C 30.06in /  1017.8hPa North 3.5mph /  5.6km/h 3.5mph /  5.6km/h 65% 0.00in /  0mm WeatherDisplay:10.37 W/m2 OVC
13:30 76.0 °F /  24.4 °C 63.4 °F /  17.4 °C 30.06in /  1017.8hPa North 3.5mph /  5.6km/h 3.5mph /  5.6km/h 65% 0.00in /  0mm WeatherDisplay:10.37 W/m2 OVC
13:35 76.0 °F /  24.4 °C 63.8 °F /  17.7 °C 30.05in /  1017.5hPa East 3.5mph /  5.6km/h 3.5mph /  5.6km/h 66% 0.00in /  0mm WeatherDisplay:10.37 W/m2 OVC
13:40 76.4 °F /  24.7 °C 63.8 °F /  17.7 °C 30.05in /  1017.5hPa South 4.0mph /  6.4km/h 4.0mph /  6.4km/h 65% 0.00in /  0mm WeatherDisplay:10.37 W/m2 OVC
13:45 77.8 °F /  25.4 °C 64.2 °F /  17.9 °C 30.05in /  1017.5hPa NE 5.0mph /  8km/h 5.0mph /  8km/h 63% 0.00in /  0mm WeatherDisplay:10.37 W/m2 OVC
13:50 77.5 °F /  25.3 °C 64.4 °F /  18 °C 30.05in /  1017.5hPa North 10.0mph /  16.1km/h 10.0mph /  16.1km/h 64% 0.00in /  0mm WeatherDisplay:10.37 W/m2 OVC
13:55 76.7 °F /  24.8 °C 64.9 °F /  18.3 °C 30.05in /  1017.5hPa North 10.4mph /  16.7km/h 10.4mph /  16.7km/h 67% 0.00in /  0mm WeatherDisplay:10.37 W/m2 OVC
14:00 76.1 °F /  24.5 °C 64.3 °F /  17.9 °C 30.04in /  1017.2hPa ENE 8.1mph /  13km/h 8.1mph /  13km/h 67% 0.00in /  0mm WeatherDisplay:10.37 W/m2 OVC
14:05 75.7 °F /  24.3 °C 64.0 °F /  17.8 °C 30.04in /  1017.2hPa ENE 8.1mph /  13km/h 8.1mph /  13km/h 67% 0.00in /  0mm WeatherDisplay:10.37 W/m2 OVC
14:10 75.6 °F /  24.2 °C 64.3 °F /  17.9 °C 30.04in /  1017.2hPa East 8.1mph /  13km/h 8.1mph /  13km/h 68% 0.00in /  0mm WeatherDisplay:10.37 W/m2 OVC
14:15 76.2 °F /  24.6 °C 64.4 °F /  18 °C 30.04in /  1017.2hPa ENE 4.6mph /  7.4km/h 4.6mph /  7.4km/h 67% 0.00in /  0mm WeatherDisplay:10.37 W/m2 OVC
14:20 76.9 °F /  24.9 °C 64.7 °F /  18.2 °C 30.04in /  1017.2hPa NNE 10.0mph /  16.1km/h 10.0mph /  16.1km/h 66% 0.00in /  0mm WeatherDisplay:10.37 W/m2 OVC
14:25 77.0 °F /  25 °C 63.9 °F /  17.7 °C 30.03in /  1016.8hPa East 8.1mph /  13km/h 8.1mph /  13km/h 64% 0.00in /  0mm WeatherDisplay:10.37 W/m2 BKN
14:30 77.0 °F /  25 °C 63.9 °F /  17.7 °C 30.03in /  1016.8hPa ESE 5.0mph /  8km/h 5.0mph /  8km/h 64% 0.00in /  0mm WeatherDisplay:10.37 W/m2 BKN
14:35 77.5 °F /  25.3 °C 64.4 °F /  18 °C 30.03in /  1016.8hPa NE 3.5mph /  5.6km/h 3.5mph /  5.6km/h 64% 0.00in /  0mm WeatherDisplay:10.37 W/m2 BKN
14:40 77.6 °F /  25.3 °C 64.5 °F /  18.1 °C 30.03in /  1016.8hPa NE 3.5mph /  5.6km/h 3.5mph /  5.6km/h 64% 0.00in /  0mm WeatherDisplay:10.37 W/m2 BKN
14:45 77.7 °F /  25.4 °C 64.1 °F /  17.8 °C 30.03in /  1016.8hPa NNE 9.0mph /  14.5km/h 9.0mph /  14.5km/h 63% 0.00in /  0mm WeatherDisplay:10.37 W/m2 BKN
14:50 77.3 °F /  25.2 °C 65.1 °F /  18.4 °C 30.03in /  1016.8hPa ENE 11.5mph /  18.5km/h 11.5mph /  18.5km/h 66% 0.00in /  0mm WeatherDisplay:10.37 W/m2 BKN
14:55 77.3 °F /  25.2 °C 64.2 °F /  17.9 °C 30.03in /  1016.8hPa North 10.0mph /  16.1km/h 10.0mph /  16.1km/h 64% 0.00in /  0mm WeatherDisplay:10.37 W/m2 BKN
15:00 76.7 °F /  24.8 °C 64.0 °F /  17.8 °C 30.03in /  1016.8hPa NNE 8.1mph /  13km/h 8.1mph /  13km/h 65% 0.00in /  0mm WeatherDisplay:10.37 W/m2 BKN
15:05 76.2 °F /  24.6 °C 64.0 °F /  17.8 °C 30.03in /  1016.8hPa East 10.4mph /  16.7km/h 10.4mph /  16.7km/h 66% 0.00in /  0mm WeatherDisplay:10.37 W/m2 OVC
15:10 76.6 °F /  24.8 °C 64.8 °F /  18.2 °C 30.02in /  1016.5hPa NNE 10.0mph /  16.1km/h 10.0mph /  16.1km/h 67% 0.00in /  0mm WeatherDisplay:10.37 W/m2 OVC
15:15 76.6 °F /  24.8 °C 64.4 °F /  18 °C 30.02in /  1016.5hPa NNE 14.0mph /  22.5km/h 14.0mph /  22.5km/h 66% 0.00in /  0mm WeatherDisplay:10.37 W/m2 OVC
15:20 76.7 °F /  24.8 °C 64.5 °F /  18.1 °C 30.02in /  1016.5hPa North 9.2mph /  14.8km/h 9.2mph /  14.8km/h 66% 0.00in /  0mm WeatherDisplay:10.37 W/m2 OVC
15:25 76.7 °F /  24.8 °C 64.0 °F /  17.8 °C 30.02in /  1016.5hPa NNE 6.9mph /  11.1km/h 6.9mph /  11.1km/h 65% 0.00in /  0mm WeatherDisplay:10.37 W/m2 BKN
15:30 76.9 °F /  24.9 °C 64.2 °F /  17.9 °C 30.02in /  1016.5hPa NNE 6.9mph /  11.1km/h 6.9mph /  11.1km/h 65% 0.00in /  0mm WeatherDisplay:10.37 W/m2 BKN
15:35 77.5 °F /  25.3 °C 64.4 °F /  18 °C 30.02in /  1016.5hPa ENE 10.4mph /  16.7km/h 10.4mph /  16.7km/h 64% 0.00in /  0mm WeatherDisplay:10.37 W/m2 BKN
15:40 77.5 °F /  25.3 °C 64.4 °F /  18 °C 30.02in /  1016.5hPa ESE 10.4mph /  16.7km/h 10.4mph /  16.7km/h 64% 0.00in /  0mm WeatherDisplay:10.37 W/m2 BKN
15:45 78.0 °F /  25.6 °C 64.4 °F /  18 °C 30.02in /  1016.5hPa NNE 6.9mph /  11.1km/h 6.9mph /  11.1km/h 63% 0.00in /  0mm WeatherDisplay:10.37 W/m2 BKN
15:50 77.2 °F /  25.1 °C 64.1 °F /  17.8 °C 30.02in /  1016.5hPa ENE 10.4mph /  16.7km/h 10.4mph /  16.7km/h 64% 0.00in /  0mm WeatherDisplay:10.37 W/m2 BKN
15:55 76.9 °F /  24.9 °C 64.2 °F /  17.9 °C 30.02in /  1016.5hPa NNE 4.6mph /  7.4km/h 4.6mph /  7.4km/h 65% 0.00in /  0mm WeatherDisplay:10.37 W/m2 BKN
16:00 76.8 °F /  24.9 °C 64.1 °F /  17.8 °C 30.02in /  1016.5hPa NNE 6.0mph /  9.7km/h 6.0mph /  9.7km/h 65% 0.00in /  0mm WeatherDisplay:10.37 W/m2 BKN
16:05 76.6 °F /  24.8 °C 64.0 °F /  17.8 °C 30.02in /  1016.5hPa NNE 9.2mph /  14.8km/h 9.2mph /  14.8km/h 65% 0.00in /  0mm WeatherDisplay:10.37 W/m2 BKN
16:10 76.7 °F /  24.8 °C 64.5 °F /  18.1 °C 30.02in /  1016.5hPa NNE 9.2mph /  14.8km/h 9.2mph /  14.8km/h 66% 0.00in /  0mm WeatherDisplay:10.37 W/m2 BKN
16:15 77.6 °F /  25.3 °C 64.9 °F /  18.3 °C 30.02in /  1016.5hPa NNE 9.0mph /  14.5km/h 9.0mph /  14.5km/h 65% 0.00in /  0mm WeatherDisplay:10.37 W/m2 BKN
16:20 77.3 °F /  25.2 °C 64.6 °F /  18.1 °C 30.02in /  1016.5hPa ENE 10.0mph /  16.1km/h 10.0mph /  16.1km/h 65% 0.00in /  0mm WeatherDisplay:10.37 W/m2 BKN
16:25 76.5 °F /  24.7 °C 64.3 °F /  17.9 °C 30.02in /  1016.5hPa NNE 10.4mph /  16.7km/h 10.4mph /  16.7km/h 66% 0.00in /  0mm WeatherDisplay:10.37 W/m2 BKN
16:30 76.3 °F /  24.6 °C 64.1 °F /  17.8 °C 30.02in /  1016.5hPa NNE 11.0mph /  17.7km/h 11.0mph /  17.7km/h 66% 0.00in /  0mm WeatherDisplay:10.37 W/m2 BKN
16:35 76.0 °F /  24.4 °C 64.2 °F /  17.9 °C 30.02in /  1016.5hPa NNE 8.1mph /  13km/h 8.1mph /  13km/h 67% 0.00in /  0mm WeatherDisplay:10.37 W/m2 BKN
16:40 75.9 °F /  24.4 °C 64.2 °F /  17.9 °C 30.02in /  1016.5hPa ESE 8.0mph /  12.9km/h 8.0mph /  12.9km/h 67% 0.00in /  0mm WeatherDisplay:10.37 W/m2 BKN
16:45 75.8 °F /  24.3 °C 63.6 °F /  17.6 °C 30.02in /  1016.5hPa NE 11.5mph /  18.5km/h 11.5mph /  18.5km/h 66% 0.00in /  0mm WeatherDisplay:10.37 W/m2 BKN
16:50 75.8 °F /  24.3 °C 63.2 °F /  17.3 °C 30.02in /  1016.5hPa NNE 10.0mph /  16.1km/h 10.0mph /  16.1km/h 65% 0.00in /  0mm WeatherDisplay:10.37 W/m2 BKN
16:55 75.8 °F /  24.3 °C 63.2 °F /  17.3 °C 30.02in /  1016.5hPa East 6.9mph /  11.1km/h 6.9mph /  11.1km/h 65% 0.00in /  0mm WeatherDisplay:10.37 W/m2 BKN
17:00 75.9 °F /  24.4 °C 62.8 °F /  17.1 °C 30.02in /  1016.5hPa NE 6.9mph /  11.1km/h 6.9mph /  11.1km/h 64% 0.00in /  0mm WeatherDisplay:10.37 W/m2 BKN
17:05 75.9 °F /  24.4 °C 62.8 °F /  17.1 °C 30.02in /  1016.5hPa East 5.0mph /  8km/h 5.0mph /  8km/h 64% 0.00in /  0mm WeatherDisplay:10.37 W/m2 BKN
17:10 75.9 °F /  24.4 °C 62.8 °F /  17.1 °C 30.02in /  1016.5hPa ENE 8.0mph /  12.9km/h 8.0mph /  12.9km/h 64% 0.00in /  0mm WeatherDisplay:10.37 W/m2 BKN
17:11 76.0 °F /  24.4 °C 62.9 °F /  17.2 °C 30.02in /  1016.5hPa NE 3.5mph /  5.6km/h 3.5mph /  5.6km/h 64% 0.00in /  0mm WeatherDisplay:10.37 W/m2 BKN
17:16 76.2 °F /  24.6 °C 63.1 °F /  17.3 °C 30.02in /  1016.5hPa East 5.8mph /  9.3km/h 5.8mph /  9.3km/h 64% 0.00in /  0mm WeatherDisplay:10.37 W/m2 BKN
17:21 76.4 °F /  24.7 °C 62.9 °F /  17.2 °C 30.02in /  1016.5hPa NE 7.0mph /  11.3km/h 7.0mph /  11.3km/h 63% 0.00in /  0mm WeatherDisplay:10.37 W/m2 BKN
17:26 76.4 °F /  24.7 °C 62.9 °F /  17.2 °C 30.03in /  1016.8hPa East 6.9mph /  11.1km/h 6.9mph /  11.1km/h 63% 0.00in /  0mm WeatherDisplay:10.37 W/m2 OVC
17:31 76.6 °F /  24.8 °C 63.1 °F /  17.3 °C 30.03in /  1016.8hPa ESE 6.9mph /  11.1km/h 6.9mph /  11.1km/h 63% 0.00in /  0mm WeatherDisplay:10.37 W/m2 OVC
17:36 76.7 °F /  24.8 °C 63.6 °F /  17.6 °C 30.03in /  1016.8hPa ENE 3.0mph /  4.8km/h 3.0mph /  4.8km/h 64% 0.00in /  0mm WeatherDisplay:10.37 W/m2 OVC
17:41 76.8 °F /  24.9 °C 63.7 °F /  17.6 °C 30.03in /  1016.8hPa East 3.0mph /  4.8km/h 3.0mph /  4.8km/h 64% 0.00in /  0mm WeatherDisplay:10.37 W/m2 OVC
17:46 77.1 °F /  25.1 °C 63.1 °F /  17.3 °C 30.03in /  1016.8hPa ENE 3.5mph /  5.6km/h 3.5mph /  5.6km/h 62% 0.00in /  0mm WeatherDisplay:10.37 W/m2 SCT
17:51 77.0 °F /  25 °C 63.0 °F /  17.2 °C 30.03in /  1016.8hPa NNE 8.0mph /  12.9km/h 8.0mph /  12.9km/h 62% 0.00in /  0mm WeatherDisplay:10.37 W/m2 SCT
17:56 76.6 °F /  24.8 °C 63.1 °F /  17.3 °C 30.03in /  1016.8hPa East 10.0mph /  16.1km/h 10.0mph /  16.1km/h 63% 0.00in /  0mm WeatherDisplay:10.37 W/m2 SCT
18:01 75.9 °F /  24.4 °C 63.3 °F /  17.4 °C 30.03in /  1016.8hPa ENE 10.4mph /  16.7km/h 10.4mph /  16.7km/h 65% 0.00in /  0mm WeatherDisplay:10.37 W/m2 SCT
18:06 75.3 °F /  24.1 °C 63.2 °F /  17.3 °C 30.04in /  1017.2hPa ENE 12.7mph /  20.4km/h 12.7mph /  20.4km/h 66% 0.00in /  0mm WeatherDisplay:10.37 W/m2 SCT
18:11 74.7 °F /  23.7 °C 63.4 °F /  17.4 °C 30.04in /  1017.2hPa ENE 12.7mph /  20.4km/h 12.7mph /  20.4km/h 68% 0.00in /  0mm WeatherDisplay:10.37 W/m2 SCT
18:16 74.2 °F /  23.4 °C 63.4 °F /  17.4 °C 30.04in /  1017.2hPa East 8.1mph /  13km/h 8.1mph /  13km/h 69% 0.00in /  0mm WeatherDisplay:10.37 W/m2 SCT
18:21 73.8 °F /  23.2 °C 63.4 °F /  17.4 °C 30.05in /  1017.5hPa South 10.4mph /  16.7km/h 10.4mph /  16.7km/h 70% 0.00in /  0mm WeatherDisplay:10.37 W/m2 SCT
18:26 73.4 °F /  23 °C 63.4 °F /  17.4 °C 30.05in /  1017.5hPa East 10.4mph /  16.7km/h 10.4mph /  16.7km/h 71% 0.00in /  0mm WeatherDisplay:10.37 W/m2 BKN
18:31 72.8 °F /  22.7 °C 63.2 °F /  17.3 °C 30.05in /  1017.5hPa WSW 10.4mph /  16.7km/h 10.4mph /  16.7km/h 72% 0.00in /  0mm WeatherDisplay:10.37 W/m2 BKN
18:36 72.4 °F /  22.4 °C 63.3 °F /  17.4 °C 30.05in /  1017.5hPa East 6.9mph /  11.1km/h 6.9mph /  11.1km/h 73% 0.00in /  0mm WeatherDisplay:10.37 W/m2 BKN
18:41 72.1 °F /  22.3 °C 63.0 °F /  17.2 °C 30.06in /  1017.8hPa East 9.2mph /  14.8km/h 9.2mph /  14.8km/h 73% 0.00in /  0mm WeatherDisplay:10.37 W/m2 BKN
18:46 71.8 °F /  22.1 °C 63.1 °F /  17.3 °C 30.06in /  1017.8hPa East 9.2mph /  14.8km/h 9.2mph /  14.8km/h 74% 0.00in /  0mm WeatherDisplay:10.37 W/m2 OVC
18:51 71.5 °F /  21.9 °C 62.8 °F /  17.1 °C 30.06in /  1017.8hPa East 12.7mph /  20.4km/h 12.7mph /  20.4km/h 74% 0.00in /  0mm WeatherDisplay:10.37 W/m2 OVC
18:56 71.4 °F /  21.9 °C 62.7 °F /  17.1 °C 30.06in /  1017.8hPa East 8.1mph /  13km/h 8.1mph /  13km/h 74% 0.00in /  0mm WeatherDisplay:10.37 W/m2 OVC
19:01 71.2 °F /  21.8 °C 62.9 °F /  17.2 °C 30.06in /  1017.8hPa ENE 6.9mph /  11.1km/h 6.9mph /  11.1km/h 75% 0.00in /  0mm WeatherDisplay:10.37 W/m2 OVC
19:06 71.0 °F /  21.7 °C 62.7 °F /  17.1 °C 30.07in /  1018.2hPa NE 9.0mph /  14.5km/h 9.0mph /  14.5km/h 75% 0.00in /  0mm WeatherDisplay:10.37 W/m2 OVC
19:11 70.8 °F /  21.6 °C 62.9 °F /  17.2 °C 30.07in /  1018.2hPa ENE 5.8mph /  9.3km/h 5.8mph /  9.3km/h 76% 0.00in /  0mm WeatherDisplay:10.37 W/m2 OVC
19:16 70.7 °F /  21.5 °C 62.8 °F /  17.1 °C 30.07in /  1018.2hPa NE 9.2mph /  14.8km/h 9.2mph /  14.8km/h 76% 0.00in /  0mm WeatherDisplay:10.37 W/m2 OVC
19:21 70.5 °F /  21.4 °C 62.2 °F /  16.8 °C 30.07in /  1018.2hPa NE 10.4mph /  16.7km/h 10.4mph /  16.7km/h 75% 0.00in /  0mm WeatherDisplay:10.37 W/m2 OVC
19:26 70.4 °F /  21.3 °C 62.5 °F /  16.9 °C 30.07in /  1018.2hPa ENE 10.4mph /  16.7km/h 10.4mph /  16.7km/h 76% 0.00in /  0mm WeatherDisplay:10.37 W/m2 OVC
19:31 70.2 °F /  21.2 °C 62.3 °F /  16.8 °C 30.07in /  1018.2hPa NNE 8.1mph /  13km/h 8.1mph /  13km/h 76% 0.00in /  0mm WeatherDisplay:10.37 W/m2 OVC
19:36 70.1 °F /  21.2 °C 62.2 °F /  16.8 °C 30.07in /  1018.2hPa NE 10.4mph /  16.7km/h 10.4mph /  16.7km/h 76% 0.00in /  0mm WeatherDisplay:10.37 W/m2 OVC
19:41 69.9 °F /  21.1 °C 62.0 °F /  16.7 °C 30.08in /  1018.5hPa East 9.0mph /  14.5km/h 9.0mph /  14.5km/h 76% 0.00in /  0mm WeatherDisplay:10.37 W/m2 OVC
19:46 69.7 °F /  20.9 °C 61.8 °F /  16.6 °C 30.08in /  1018.5hPa NNE 9.2mph /  14.8km/h 9.2mph /  14.8km/h 76% 0.00in /  0mm WeatherDisplay:10.37 W/m2 OVC
19:51 69.6 °F /  20.9 °C 62.1 °F /  16.7 °C 30.08in /  1018.5hPa ENE 11.5mph /  18.5km/h 11.5mph /  18.5km/h 77% 0.00in /  0mm WeatherDisplay:10.37 W/m2 OVC
19:56 69.5 °F /  20.8 °C 62.0 °F /  16.7 °C 30.08in /  1018.5hPa NE 11.5mph /  18.5km/h 11.5mph /  18.5km/h 77% 0.00in /  0mm WeatherDisplay:10.37 W/m2 OVC
20:01 69.3 °F /  20.7 °C 61.8 °F /  16.6 °C 30.09in /  1018.8hPa SE 11.5mph /  18.5km/h 11.5mph /  18.5km/h 77% 0.00in /  0mm WeatherDisplay:10.37 W/m2 OVC
20:06 69.1 °F /  20.6 °C 61.6 °F /  16.4 °C 30.09in /  1018.8hPa ENE 9.2mph /  14.8km/h 9.2mph /  14.8km/h 77% 0.00in /  0mm WeatherDisplay:10.37 W/m2 OVC
20:11 69.0 °F /  20.6 °C 61.9 °F /  16.6 °C 30.09in /  1018.8hPa ENE 10.0mph /  16.1km/h 10.0mph /  16.1km/h 78% 0.00in /  0mm WeatherDisplay:10.37 W/m2 OVC
20:16 68.8 °F /  20.4 °C 61.7 °F /  16.5 °C 30.09in /  1018.8hPa ENE 9.2mph /  14.8km/h 9.2mph /  14.8km/h 78% 0.00in /  0mm WeatherDisplay:10.37 W/m2 OVC
20:21 68.6 °F /  20.3 °C 61.5 °F /  16.4 °C 30.10in /  1019.2hPa NE 11.5mph /  18.5km/h 11.5mph /  18.5km/h 78% 0.00in /  0mm WeatherDisplay:10.37 W/m2 OVC
20:26 68.5 °F /  20.3 °C 61.4 °F /  16.3 °C 30.09in /  1018.8hPa ENE 9.2mph /  14.8km/h 9.2mph /  14.8km/h 78% 0.00in /  0mm WeatherDisplay:10.37 W/m2 OVC
20:31 68.4 °F /  20.2 °C 61.6 °F /  16.4 °C 30.10in /  1019.2hPa ENE 9.2mph /  14.8km/h 9.2mph /  14.8km/h 79% 0.00in /  0mm WeatherDisplay:10.37 W/m2 OVC
20:36 68.2 °F /  20.1 °C 61.4 °F /  16.3 °C 30.10in /  1019.2hPa ENE 8.1mph /  13km/h 8.1mph /  13km/h 79% 0.00in /  0mm WeatherDisplay:10.37 W/m2 OVC
20:41 68.1 °F /  20.1 °C 61.3 °F /  16.3 °C 30.10in /  1019.2hPa ENE 5.0mph /  8km/h 5.0mph /  8km/h 79% 0.00in /  0mm WeatherDisplay:10.37 W/m2 OVC
20:46 68.0 °F /  20 °C 61.2 °F /  16.2 °C 30.10in /  1019.2hPa NNE 10.0mph /  16.1km/h 10.0mph /  16.1km/h 79% 0.00in /  0mm WeatherDisplay:10.37 W/m2 OVC
20:51 67.8 °F /  19.9 °C 61.4 °F /  16.3 °C 30.11in /  1019.5hPa East 12.7mph /  20.4km/h 12.7mph /  20.4km/h 80% 0.00in /  0mm WeatherDisplay:10.37 W/m2 OVC
20:56 67.5 °F /  19.7 °C 61.1 °F /  16.2 °C 30.10in /  1019.2hPa NE 12.7mph /  20.4km/h 12.7mph /  20.4km/h 80% 0.00in /  0mm WeatherDisplay:10.37 W/m2 OVC
21:01 67.4 °F /  19.7 °C 61.4 °F /  16.3 °C 30.11in /  1019.5hPa ENE 11.5mph /  18.5km/h 11.5mph /  18.5km/h 81% 0.00in /  0mm WeatherDisplay:10.37 W/m2 OVC
21:06 67.2 °F /  19.6 °C 61.2 °F /  16.2 °C 30.11in /  1019.5hPa NE 8.1mph /  13km/h 8.1mph /  13km/h 81% 0.00in /  0mm WeatherDisplay:10.37 W/m2 OVC
21:08 67.2 °F /  19.6 °C 61.2 °F /  16.2 °C 30.11in /  1019.5hPa NE 7.0mph /  11.3km/h 7.0mph /  11.3km/h 81% 0.00in /  0mm WeatherDisplay:10.37 W/m2 OVC
21:13 67.0 °F /  19.4 °C 61.0 °F /  16.1 °C 30.11in /  1019.5hPa NNE 5.8mph /  9.3km/h 5.8mph /  9.3km/h 81% 0.00in /  0mm WeatherDisplay:10.37 W/m2 OVC
21:18 67.0 °F /  19.4 °C 61.0 °F /  16.1 °C 30.10in /  1019.2hPa East 12.7mph /  20.4km/h 12.7mph /  20.4km/h 81% 0.00in /  0mm WeatherDisplay:10.37 W/m2 OVC
21:23 67.0 °F /  19.4 °C 61.0 °F /  16.1 °C 30.11in /  1019.5hPa East 12.7mph /  20.4km/h 12.7mph /  20.4km/h 81% 0.00in /  0mm WeatherDisplay:10.37 W/m2 OVC
21:28 66.9 °F /  19.4 °C 60.9 °F /  16.1 °C 30.11in /  1019.5hPa NE 12.7mph /  20.4km/h 12.7mph /  20.4km/h 81% 0.00in /  0mm WeatherDisplay:10.37 W/m2 OVC
21:33 66.8 °F /  19.3 °C 60.8 °F /  16 °C 30.11in /  1019.5hPa East 8.1mph /  13km/h 8.1mph /  13km/h 81% 0.00in /  0mm WeatherDisplay:10.37 W/m2 OVC
21:34 66.8 °F /  19.3 °C 60.8 °F /  16 °C 30.11in /  1019.5hPa NNE 9.0mph /  14.5km/h 9.0mph /  14.5km/h 81% 0.00in /  0mm WeatherDisplay:10.37 W/m2 OVC
21:39 66.9 °F /  19.4 °C 60.9 °F /  16.1 °C 30.12in /  1019.9hPa ENE 10.4mph /  16.7km/h 10.4mph /  16.7km/h 81% 0.00in /  0mm WeatherDisplay:10.37 W/m2 OVC
21:44 66.9 °F /  19.4 °C 60.9 °F /  16.1 °C 30.12in /  1019.9hPa East 10.4mph /  16.7km/h 10.4mph /  16.7km/h 81% 0.00in /  0mm WeatherDisplay:10.37 W/m2 OVC
21:49 66.9 °F /  19.4 °C 60.9 °F /  16.1 °C 30.12in /  1019.9hPa East 14.0mph /  22.5km/h 14.0mph /  22.5km/h 81% 0.00in /  0mm WeatherDisplay:10.37 W/m2 OVC
21:54 66.9 °F /  19.4 °C 60.9 °F /  16.1 °C 30.12in /  1019.9hPa East 9.2mph /  14.8km/h 9.2mph /  14.8km/h 81% 0.00in /  0mm WeatherDisplay:10.37 W/m2 OVC
21:59 66.8 °F /  19.3 °C 60.8 °F /  16 °C 30.12in /  1019.9hPa NE 10.4mph /  16.7km/h 10.4mph /  16.7km/h 81% 0.00in /  0mm WeatherDisplay:10.37 W/m2 OVC
22:04 66.6 °F /  19.2 °C 60.6 °F /  15.9 °C 30.12in /  1019.9hPa ENE 8.1mph /  13km/h 8.1mph /  13km/h 81% 0.00in /  0mm WeatherDisplay:10.37 W/m2 OVC
22:09 66.5 °F /  19.2 °C 60.5 °F /  15.8 °C 30.12in /  1019.9hPa East 9.2mph /  14.8km/h 9.2mph /  14.8km/h 81% 0.00in /  0mm WeatherDisplay:10.37 W/m2 OVC
22:14 66.5 °F /  19.2 °C 60.5 °F /  15.8 °C 30.12in /  1019.9hPa NE 6.0mph /  9.7km/h 6.0mph /  9.7km/h 81% 0.00in /  0mm WeatherDisplay:10.37 W/m2 OVC
22:19 66.4 °F /  19.1 °C 60.4 °F /  15.8 °C 30.12in /  1019.9hPa NE 3.5mph /  5.6km/h 3.5mph /  5.6km/h 81% 0.00in /  0mm WeatherDisplay:10.37 W/m2 OVC
22:24 66.3 °F /  19.1 °C 60.6 °F /  15.9 °C 30.12in /  1019.9hPa NNE 4.0mph /  6.4km/h 4.0mph /  6.4km/h 82% 0.00in /  0mm WeatherDisplay:10.37 W/m2 OVC
22:29 66.2 °F /  19 °C 60.5 °F /  15.8 °C 30.12in /  1019.9hPa ENE 4.0mph /  6.4km/h 4.0mph /  6.4km/h 82% 0.00in /  0mm WeatherDisplay:10.37 W/m2 OVC
22:34 66.1 °F /  18.9 °C 60.4 °F /  15.8 °C 30.12in /  1019.9hPa NE 7.0mph /  11.3km/h 7.0mph /  11.3km/h 82% 0.00in /  0mm WeatherDisplay:10.37 W/m2 OVC
22:39 66.1 °F /  18.9 °C 60.4 °F /  15.8 °C 30.12in /  1019.9hPa East 8.1mph /  13km/h 8.1mph /  13km/h 82% 0.00in /  0mm WeatherDisplay:10.37 W/m2 OVC
22:44 66.1 °F /  18.9 °C 60.4 °F /  15.8 °C 30.13in /  1020.2hPa ENE 8.0mph /  12.9km/h 8.0mph /  12.9km/h 82% 0.00in /  0mm WeatherDisplay:10.37 W/m2 OVC
22:49 66.1 °F /  18.9 °C 60.1 °F /  15.6 °C 30.13in /  1020.2hPa NE 9.2mph /  14.8km/h 9.2mph /  14.8km/h 81% 0.00in /  0mm WeatherDisplay:10.37 W/m2 OVC
22:54 66.1 °F /  18.9 °C 60.1 °F /  15.6 °C 30.13in /  1020.2hPa East 9.2mph /  14.8km/h 9.2mph /  14.8km/h 81% 0.00in /  0mm WeatherDisplay:10.37 W/m2 OVC
22:55 66.1 °F /  18.9 °C 60.4 °F /  15.8 °C 30.13in /  1020.2hPa East 9.2mph /  14.8km/h 9.2mph /  14.8km/h 82% 0.00in /  0mm WeatherDisplay:10.37 W/m2 OVC
23:00 65.9 °F /  18.8 °C 60.2 °F /  15.7 °C 30.13in /  1020.2hPa ENE 9.2mph /  14.8km/h 9.2mph /  14.8km/h 82% 0.00in /  0mm WeatherDisplay:10.37 W/m2 OVC
23:05 65.8 °F /  18.8 °C 60.2 °F /  15.7 °C 30.13in /  1020.2hPa ENE 10.0mph /  16.1km/h 10.0mph /  16.1km/h 82% 0.00in /  0mm WeatherDisplay:10.37 W/m2 OVC
23:10 65.9 °F /  18.8 °C 60.2 °F /  15.7 °C 30.13in /  1020.2hPa East 10.4mph /  16.7km/h 10.4mph /  16.7km/h 82% 0.00in /  0mm WeatherDisplay:10.37 W/m2 OVC
23:15 65.8 °F /  18.8 °C 60.2 °F /  15.7 °C 30.13in /  1020.2hPa ENE 10.4mph /  16.7km/h 10.4mph /  16.7km/h 82% 0.00in /  0mm WeatherDisplay:10.37 W/m2 OVC
23:20 65.7 °F /  18.7 °C 60.1 °F /  15.6 °C 30.13in /  1020.2hPa East 5.8mph /  9.3km/h 5.8mph /  9.3km/h 82% 0.00in /  0mm WeatherDisplay:10.37 W/m2 OVC
23:25 65.7 °F /  18.7 °C 60.1 °F /  15.6 °C 30.13in /  1020.2hPa East 5.8mph /  9.3km/h 5.8mph /  9.3km/h 82% 0.00in /  0mm WeatherDisplay:10.37 W/m2 OVC
23:30 65.6 °F /  18.7 °C 60.0 °F /  15.6 °C 30.14in /  1020.5hPa East 5.8mph /  9.3km/h 5.8mph /  9.3km/h 82% 0.00in /  0mm WeatherDisplay:10.37 W/m2 OVC
23:35 65.5 °F /  18.6 °C 59.9 °F /  15.5 °C 30.14in /  1020.5hPa ENE 5.0mph /  8km/h 5.0mph /  8km/h 82% 0.00in /  0mm WeatherDisplay:10.37 W/m2 OVC
23:40 65.6 °F /  18.7 °C 60.0 °F /  15.6 °C 30.14in /  1020.5hPa East 6.0mph /  9.7km/h 6.0mph /  9.7km/h 82% 0.00in /  0mm WeatherDisplay:10.37 W/m2 OVC
23:45 65.6 °F /  18.7 °C 60.0 °F /  15.6 °C 30.14in /  1020.5hPa North 8.0mph /  12.9km/h 8.0mph /  12.9km/h 82% 0.00in /  0mm WeatherDisplay:10.37 W/m2 OVC
23:50 65.6 °F /  18.7 °C 60.0 °F /  15.6 °C 30.14in /  1020.5hPa East 5.0mph /  8km/h 5.0mph /  8km/h 82% 0.00in /  0mm WeatherDisplay:10.37 W/m2 OVC
23:55 65.6 °F /  18.7 °C 60.0 °F /  15.6 °C 30.14in /  1020.5hPa NE 5.8mph /  9.3km/h 5.8mph /  9.3km/h 82% 0.00in /  0mm WeatherDisplay:10.37 W/m2 OVC
Smyth Weather
Compliments of Weather Underground - 3 mb